Time;durP1;ratioP1;P1;durP2;ratioP2;P2;SDS_P1;SDS_P2;PMS_P1;PMS_P2;Temp;Humidity;BMP_temperature;BMP_pressure;BME280_temperature;BME280_humidity;BME280_pressure;Samples;Min_cycle;Max_cycle;Signal;HPM_P1;HPM_P2
2021/07/13 00:02:05;;;;;;;5.50;2.60;;;23.30;98.80;;;;;;5056318;28;20182;-75
2021/07/13 00:04:34;;;;;;;6.70;2.90;;;23.30;98.80;;;;;;5038713;28;20210;-74
2021/07/13 00:07:01;;;;;;;5.97;3.20;;;23.20;98.80;;;;;;5019095;28;20195;-75
2021/07/13 00:09:28;;;;;;;4.50;2.90;;;23.20;98.80;;;;;;5022493;28;20240;-74
2021/07/13 00:11:56;;;;;;;4.27;2.60;;;23.30;99.00;;;;;;5041998;28;20301;-75
2021/07/13 00:14:23;;;;;;;5.40;2.80;;;23.30;98.60;;;;;;5038789;28;20917;-75
2021/07/13 00:16:50;;;;;;;5.27;3.03;;;23.20;98.40;;;;;;5047755;28;20203;-73
2021/07/13 00:19:17;;;;;;;6.43;2.90;;;23.10;98.30;;;;;;5041951;28;20187;-76
2021/07/13 00:21:44;;;;;;;8.60;3.40;;;23.10;98.00;;;;;;5037490;28;20179;-74
2021/07/13 00:24:12;;;;;;;4.83;2.73;;;23.10;98.30;;;;;;5042821;28;20684;-75
2021/07/13 00:26:38;;;;;;;5.53;3.00;;;23.10;98.30;;;;;;5017990;28;20215;-75
2021/07/13 00:29:08;;;;;;;8.17;3.07;;;23.10;98.30;;;;;;5033375;28;20574;-76
2021/07/13 00:31:35;;;;;;;3.07;2.50;;;23.20;98.70;;;;;;5041159;28;20915;-75
2021/07/13 00:34:01;;;;;;;3.80;2.80;;;23.20;98.20;;;;;;5038867;28;20202;-76
2021/07/13 00:36:28;;;;;;;4.80;2.80;;;23.20;97.30;;;;;;5042550;28;20730;-75
2021/07/13 00:38:54;;;;;;;6.93;2.63;;;23.10;97.30;;;;;;5042048;28;20188;-76
2021/07/13 00:41:20;;;;;;;7.60;2.60;;;23.10;96.90;;;;;;5041549;28;20183;-75
2021/07/13 00:43:49;;;;;;;4.40;2.67;;;23.00;96.80;;;;;;5021639;28;20823;-76
2021/07/13 00:46:15;;;;;;;7.27;2.73;;;23.00;96.60;;;;;;5039253;28;20206;-75
2021/07/13 00:48:42;;;;;;;4.80;2.53;;;23.00;96.50;;;;;;5040750;28;20202;-74
2021/07/13 00:51:10;;;;;;;3.63;2.70;;;23.00;96.20;;;;;;5039084;28;20695;-75
2021/07/13 00:53:42;;;;;;;6.00;2.73;;;22.90;96.20;;;;;;5040544;28;20205;-75
2021/07/13 00:56:10;;;;;;;3.67;2.70;;;22.90;96.80;;;;;;5041116;28;20792;-75
2021/07/13 00:58:36;;;;;;;4.40;2.47;;;23.00;96.30;;;;;;5013367;28;20198;-74
2021/07/13 01:01:04;;;;;;;11.73;2.90;;;22.90;96.10;;;;;;5037226;28;20195;-75
2021/07/13 01:03:32;;;;;;;5.27;2.10;;;22.90;96.20;;;;;;5036132;28;20215;-73
2021/07/13 01:05:59;;;;;;;4.43;2.37;;;22.90;96.30;;;;;;5039114;28;20191;-75
2021/07/13 01:09:05;;;;;;;3.67;2.27;;;22.90;96.00;;;;;;5037526;28;20900;-74
2021/07/13 01:11:57;;;;;;;5.70;2.43;;;22.80;95.70;;;;;;5026014;28;20265;-76
2021/07/13 01:15:00;;;;;;;3.97;2.43;;;22.70;95.90;;;;;;5041737;28;20229;-74
2021/07/13 01:17:48;;;;;;;3.10;2.33;;;22.80;95.50;;;;;;5027893;28;20287;-74
2021/07/13 01:20:50;;;;;;;6.47;2.30;;;22.70;95.60;;;;;;5041667;28;20190;-76
2021/07/13 01:23:35;;;;;;;3.73;2.17;;;22.70;95.70;;;;;;5024072;28;20215;-75
2021/07/13 01:26:57;;;;;;;6.60;2.70;;;22.70;95.60;;;;;;5041201;28;20187;-74
2021/07/13 01:29:28;;;;;;;3.40;2.40;;;22.80;95.80;;;;;;5030107;28;20294;-74
2021/07/13 01:31:57;;;;;;;9.40;2.30;;;22.80;96.50;;;;;;5022565;28;20287;-75
2021/07/13 01:34:32;;;;;;;5.20;2.67;;;22.90;96.00;;;;;;5051770;28;20188;-75
2021/07/13 01:37:03;;;;;;;4.43;2.73;;;22.90;96.30;;;;;;5044273;28;20675;-74
2021/07/13 01:39:32;;;;;;;3.57;2.50;;;22.80;95.70;;;;;;5023617;28;20186;-74
2021/07/13 01:42:05;;;;;;;5.23;2.63;;;22.80;96.10;;;;;;5043973;28;20210;-75
2021/07/13 01:44:35;;;;;;;7.50;2.80;;;22.70;96.00;;;;;;5030617;28;20345;-75
2021/07/13 01:47:01;;;;;;;5.37;2.67;;;22.70;96.10;;;;;;5030486;28;20741;-75
2021/07/13 01:49:29;;;;;;;4.50;2.80;;;22.70;96.40;;;;;;5026971;28;20648;-76
2021/07/13 01:51:57;;;;;;;8.97;2.90;;;22.70;96.20;;;;;;5044162;28;20262;-76
2021/07/13 01:54:28;;;;;;;5.27;2.70;;;22.70;96.40;;;;;;5024273;28;20644;-75
2021/07/13 01:56:59;;;;;;;4.67;3.27;;;22.80;96.20;;;;;;5041470;28;20207;-75
2021/07/13 01:59:28;;;;;;;5.20;2.60;;;22.90;97.00;;;;;;5035642;28;20185;-76
2021/07/13 02:01:59;;;;;;;6.37;2.83;;;22.90;95.90;;;;;;5039347;28;20206;-73
2021/07/13 02:04:30;;;;;;;3.37;2.43;;;22.90;95.50;;;;;;5038365;28;20212;-75
2021/07/13 02:07:00;;;;;;;3.47;2.60;;;22.90;95.00;;;;;;5038056;28;20891;-75
2021/07/13 02:09:28;;;;;;;3.83;2.90;;;22.90;94.70;;;;;;5041737;28;20202;-74
2021/07/13 02:11:57;;;;;;;4.10;2.80;;;22.90;94.80;;;;;;5043786;28;20192;-74
2021/07/13 02:14:24;;;;;;;3.70;2.47;;;22.80;94.30;;;;;;5037489;28;20196;-75
2021/07/13 02:16:51;;;;;;;3.57;2.70;;;22.80;94.40;;;;;;5044202;28;20466;-77
2021/07/13 02:19:18;;;;;;;4.20;2.37;;;22.80;94.60;;;;;;5044881;28;20191;-74
2021/07/13 02:21:44;;;;;;;3.47;2.40;;;22.80;94.10;;;;;;5029220;28;20183;-75
2021/07/13 02:24:11;;;;;;;6.73;2.57;;;22.90;94.10;;;;;;5028717;28;20735;-75
2021/07/13 02:26:47;;;;;;;5.03;2.77;;;22.80;94.00;;;;;;5052609;28;20180;-77
2021/07/13 02:29:30;;;;;;;3.23;2.37;;;22.90;93.80;;;;;;5040044;28;20176;-74
2021/07/13 02:32:05;;;;;;;5.33;2.20;;;22.90;93.10;;;;;;5041031;28;20271;-74
2021/07/13 02:34:40;;;;;;;7.33;2.40;;;22.90;92.40;;;;;;5043492;28;20191;-76
2021/07/13 02:37:12;;;;;;;2.87;1.90;;;22.90;91.40;;;;;;5060902;28;20210;-75
2021/07/13 02:39:40;;;;;;;3.57;2.30;;;22.80;90.70;;;;;;5050669;28;20622;-73
2021/07/13 02:42:08;;;;;;;3.07;1.83;;;22.90;91.10;;;;;;5028711;28;20206;-74
2021/07/13 02:44:37;;;;;;;3.23;1.60;;;22.80;90.30;;;;;;5042997;28;20289;-75
2021/07/13 02:47:10;;;;;;;1.70;1.60;;;22.80;89.20;;;;;;5044169;28;20227;-75
2021/07/13 02:49:45;;;;;;;2.20;1.60;;;22.70;88.50;;;;;;5025864;28;20192;-75
2021/07/13 02:52:28;;;;;;;2.87;1.90;;;22.70;89.40;;;;;;5026578;28;20265;-75
2021/07/13 02:55:08;;;;;;;1.83;1.60;;;22.80;89.50;;;;;;5024944;28;20199;-74
2021/07/13 02:57:38;;;;;;;4.17;1.90;;;22.80;90.10;;;;;;5041190;28;20230;-76
2021/07/13 03:00:08;;;;;;;3.67;1.50;;;22.80;87.60;;;;;;5037799;28;20232;-74
2021/07/13 03:02:37;;;;;;;2.87;1.63;;;22.70;87.00;;;;;;5019021;28;20200;-76
2021/07/13 03:05:04;;;;;;;8.43;1.80;;;22.70;86.70;;;;;;5021248;28;20604;-74
2021/07/13 03:07:33;;;;;;;4.23;1.80;;;22.70;86.30;;;;;;5040875;28;20194;-75
2021/07/13 03:10:01;;;;;;;3.37;1.60;;;22.70;87.10;;;;;;5037990;28;20707;-76
2021/07/13 03:12:28;;;;;;;3.57;1.30;;;22.70;86.10;;;;;;5042269;28;20188;-73
2021/07/13 03:14:56;;;;;;;2.50;1.33;;;22.70;83.70;;;;;;5058183;28;20188;-73
2021/07/13 03:17:23;;;;;;;5.53;1.57;;;22.70;82.40;;;;;;5041368;28;20544;-75
2021/07/13 03:19:50;;;;;;;11.07;1.40;;;22.70;81.50;;;;;;5040787;28;20693;-76
2021/07/13 03:22:30;;;;;;;5.63;1.40;;;22.70;77.70;;;;;;5042786;28;20283;-75
2021/07/13 03:25:00;;;;;;;6.97;1.00;;;22.70;76.00;;;;;;5021614;28;20253;-75
2021/07/13 03:27:29;;;;;;;10.30;1.27;;;22.70;76.70;;;;;;5043469;28;20187;-74
2021/07/13 03:29:58;;;;;;;5.53;0.97;;;22.80;75.80;;;;;;5041565;28;20176;-74
2021/07/13 03:32:25;;;;;;;6.10;0.93;;;22.90;77.00;;;;;;5017623;28;21944;-76
2021/07/13 03:34:53;;;;;;;40.17;3.03;;;22.90;76.90;;;;;;5024459;28;20203;-73
2021/07/13 03:37:20;;;;;;;2.70;1.03;;;22.90;74.80;;;;;;5040213;28;20184;-75
2021/07/13 03:39:49;;;;;;;3.20;0.90;;;22.90;75.90;;;;;;5044216;28;20206;-75
2021/07/13 03:42:22;;;;;;;0.70;0.70;;;22.90;75.60;;;;;;5039171;28;20199;-77
2021/07/13 03:44:48;;;;;;;1.00;0.73;;;23.00;74.00;;;;;;5040068;28;20537;-74
2021/07/13 03:47:17;;;;;;;1.07;0.70;;;23.00;74.80;;;;;;5022751;28;20295;-76
2021/07/13 03:49:46;;;;;;;1.43;0.93;;;23.00;75.30;;;;;;5042271;28;20266;-76
2021/07/13 03:52:13;;;;;;;2.87;0.90;;;23.10;75.00;;;;;;5041905;28;20180;-77
2021/07/13 03:54:40;;;;;;;3.60;0.83;;;23.10;75.00;;;;;;5027354;28;20253;-75
2021/07/13 03:57:08;;;;;;;1.00;0.90;;;23.00;75.50;;;;;;5043826;28;20261;-76
2021/07/13 03:59:35;;;;;;;1.07;0.77;;;23.10;75.40;;;;;;5059777;28;20184;-74
2021/07/13 04:02:01;;;;;;;2.60;0.97;;;23.10;76.40;;;;;;5014327;28;20309;-75
2021/07/13 04:04:27;;;;;;;1.47;0.93;;;23.10;76.70;;;;;;5037394;28;20291;-75
2021/07/13 04:06:54;;;;;;;2.87;1.30;;;23.10;77.60;;;;;;5046055;28;20691;-74
2021/07/13 04:09:20;;;;;;;3.70;1.47;;;23.20;80.90;;;;;;5056354;28;20194;-74
2021/07/13 04:11:46;;;;;;;2.47;1.40;;;23.20;81.40;;;;;;5042279;28;20210;-73
2021/07/13 04:14:13;;;;;;;1.20;1.10;;;23.20;81.70;;;;;;5042989;28;20286;-76
2021/07/13 04:16:39;;;;;;;1.67;1.30;;;23.20;81.00;;;;;;5043703;28;20195;-74
2021/07/13 04:19:06;;;;;;;1.87;1.33;;;23.30;82.10;;;;;;5040979;28;20191;-76
2021/07/13 04:21:32;;;;;;;2.33;1.30;;;23.30;82.90;;;;;;5042964;28;20188;-76
2021/07/13 04:23:59;;;;;;;2.53;1.30;;;23.30;81.90;;;;;;5056718;28;20346;-73
2021/07/13 04:26:25;;;;;;;1.83;1.20;;;23.30;82.20;;;;;;5039307;28;20187;-77
2021/07/13 04:28:51;;;;;;;2.47;1.10;;;23.30;81.60;;;;;;5025688;28;20183;-76
2021/07/13 04:31:18;;;;;;;1.20;1.10;;;23.40;82.30;;;;;;5025557;28;20176;-74
2021/07/13 04:33:44;;;;;;;2.57;1.20;;;23.40;82.70;;;;;;5035802;28;20270;-72
2021/07/13 04:36:10;;;;;;;1.90;1.40;;;23.50;85.60;;;;;;5029884;28;20192;-74
2021/07/13 04:38:36;;;;;;;2.47;1.30;;;23.50;85.10;;;;;;5043604;28;20187;-76
2021/07/13 04:41:03;;;;;;;4.30;1.35;;;23.50;85.00;;;;;;5043895;28;20404;-74
2021/07/13 04:43:29;;;;;;;3.78;1.30;;;23.60;85.50;;;;;;5043377;28;20298;-76
2021/07/13 04:45:55;;;;;;;2.70;1.25;;;23.60;86.70;;;;;;5056800;28;20210;-75
2021/07/13 04:48:21;;;;;;;3.13;1.40;;;23.60;86.00;;;;;;5040790;28;20212;-73
2021/07/13 04:50:48;;;;;;;1.50;1.40;;;23.70;86.80;;;;;;5057476;28;20191;-75
2021/07/13 04:53:14;;;;;;;4.13;1.58;;;23.80;88.00;;;;;;5040463;28;20192;-77
2021/07/13 04:55:40;;;;;;;1.65;1.20;;;23.80;87.90;;;;;;5045484;28;20195;-75
2021/07/13 04:58:07;;;;;;;1.58;1.30;;;23.90;88.40;;;;;;5042135;28;20179;-78
2021/07/13 05:00:33;;;;;;;1.38;1.27;;;24.00;87.90;;;;;;5037557;28;20291;-76
2021/07/13 05:02:59;;;;;;;1.20;1.10;;;24.00;87.10;;;;;;5053510;28;20274;-71
2021/07/13 05:05:26;;;;;;;1.30;1.13;;;24.20;86.90;;;;;;5025596;28;20219;-73
2021/07/13 05:07:53;;;;;;;1.10;1.00;;;24.20;87.10;;;;;;5039918;28;20694;-73
2021/07/13 05:10:19;;;;;;;2.15;1.25;;;24.20;88.30;;;;;;5041560;28;20242;-75
2021/07/13 05:12:46;;;;;;;1.70;1.50;;;24.30;89.20;;;;;;5042868;28;20183;-71
2021/07/13 05:15:15;;;;;;;1.58;1.33;;;24.30;90.00;;;;;;5048137;28;20188;-74
2021/07/13 05:17:42;;;;;;;1.90;1.65;;;24.40;90.40;;;;;;5030432;28;20183;-73
2021/07/13 05:20:13;;;;;;;3.65;1.88;;;24.50;89.90;;;;;;5043586;28;20188;-72
2021/07/13 05:22:42;;;;;;;2.47;1.60;;;24.50;90.30;;;;;;5028001;28;20184;-72
2021/07/13 05:25:13;;;;;;;1.58;1.40;;;24.60;87.50;;;;;;5043031;28;20230;-70
2021/07/13 05:27:41;;;;;;;3.42;1.48;;;24.60;89.90;;;;;;5045461;28;20180;-71
2021/07/13 05:30:10;;;;;;;2.00;1.10;;;24.70;88.40;;;;;;5045542;28;20192;-73
2021/07/13 05:32:37;;;;;;;1.77;1.55;;;24.70;85.60;;;;;;5059929;28;20654;-74
2021/07/13 05:35:05;;;;;;;1.10;1.00;;;24.70;86.10;;;;;;5024535;28;20330;-73
2021/07/13 05:37:33;;;;;;;1.50;1.30;;;24.80;84.00;;;;;;5034669;28;20191;-72
2021/07/13 05:40:00;;;;;;;1.40;1.25;;;24.90;86.10;;;;;;5039982;28;20609;-73
2021/07/13 05:42:27;;;;;;;1.52;1.35;;;25.10;83.00;;;;;;5022626;28;20211;-73
2021/07/13 05:44:53;;;;;;;1.85;1.30;;;25.20;84.00;;;;;;5043508;28;20298;-72
2021/07/13 05:47:19;;;;;;;6.03;1.30;;;25.40;80.20;;;;;;5046302;28;20298;-73
2021/07/13 05:49:46;;;;;;;4.70;1.40;;;25.60;80.90;;;;;;5045922;28;20184;-72
2021/07/13 05:52:12;;;;;;;5.95;1.60;;;25.40;80.70;;;;;;5045160;28;20191;-71
2021/07/13 05:54:38;;;;;;;1.83;1.30;;;25.40;77.00;;;;;;5042878;28;20199;-73
2021/07/13 05:57:05;;;;;;;3.33;1.02;;;25.80;73.10;;;;;;5041013;28;20966;-72
2021/07/13 05:59:31;;;;;;;1.48;1.30;;;25.90;75.60;;;;;;5027395;28;20211;-73
2021/07/13 06:01:57;;;;;;;4.20;1.35;;;26.00;76.20;;;;;;5045590;28;20289;-74
2021/07/13 06:04:23;;;;;;;5.05;2.20;;;25.90;77.50;;;;;;5047426;28;20207;-74
2021/07/13 06:06:50;;;;;;;2.50;1.90;;;26.80;78.90;;;;;;5017102;28;20215;-77
2021/07/13 06:09:16;;;;;;;6.63;1.85;;;27.10;80.20;;;;;;5058962;28;20274;-73
2021/07/13 06:11:42;;;;;;;3.78;2.10;;;27.20;79.00;;;;;;5043998;28;20183;-77
2021/07/13 06:14:08;;;;;;;4.38;2.15;;;27.40;83.60;;;;;;5045797;28;20263;-76
2021/07/13 06:16:35;;;;;;;13.90;3.20;;;27.70;85.30;;;;;;5043229;28;20183;-73
2021/07/13 06:19:01;;;;;;;9.30;3.05;;;27.80;88.80;;;;;;5025886;28;20303;-74
2021/07/13 06:21:27;;;;;;;7.40;3.10;;;27.70;90.10;;;;;;5042668;28;20575;-74
2021/07/13 06:23:55;;;;;;;8.38;3.47;;;27.70;91.30;;;;;;5043766;28;20222;-74
2021/07/13 06:26:22;;;;;;;7.78;3.28;;;27.70;91.60;;;;;;5061162;28;20651;-74
2021/07/13 06:28:48;;;;;;;13.00;3.50;;;27.60;93.30;;;;;;5047751;28;20187;-76
2021/07/13 06:31:15;;;;;;;12.30;4.18;;;27.70;94.90;;;;;;5027816;28;20229;-75
2021/07/13 06:33:41;;;;;;;9.02;4.32;;;27.70;97.00;;;;;;5044326;28;20191;-78
2021/07/13 06:36:08;;;;;;;11.02;4.47;;;27.70;98.10;;;;;;5045119;28;20187;-74
2021/07/13 06:38:34;;;;;;;11.60;4.03;;;27.80;98.90;;;;;;5032148;28;20679;-74
2021/07/13 06:41:01;;;;;;;11.18;3.67;;;27.70;97.50;;;;;;5028378;28;20192;-77
2021/07/13 06:43:27;;;;;;;9.55;4.00;;;27.80;98.00;;;;;;5026433;28;20622;-72
2021/07/13 06:45:53;;;;;;;10.68;4.45;;;27.80;99.00;;;;;;5044895;28;20231;-75
2021/07/13 06:48:21;;;;;;;15.77;4.47;;;27.80;99.90;;;;;;5043849;28;20650;-75
2021/07/13 06:50:47;;;;;;;12.75;5.20;;;27.70;99.90;;;;;;5043325;28;20188;-74
2021/07/13 06:53:13;;;;;;;13.05;5.10;;;27.70;99.90;;;;;;5041450;28;20864;-74
2021/07/13 06:55:40;;;;;;;11.98;5.15;;;27.70;99.90;;;;;;5026053;28;20196;-75
2021/07/13 06:58:06;;;;;;;14.88;5.47;;;27.70;99.90;;;;;;5041501;28;20807;-73
2021/07/13 07:00:32;;;;;;;15.10;5.30;;;27.70;99.90;;;;;;5026742;28;20191;-75
2021/07/13 07:02:59;;;;;;;14.20;5.43;;;27.70;99.90;;;;;;5036827;28;20953;-74
2021/07/13 07:05:25;;;;;;;12.23;4.78;;;27.70;99.90;;;;;;5040614;28;20221;-74
2021/07/13 07:07:52;;;;;;;13.45;5.40;;;27.80;99.90;;;;;;5021615;28;20190;-75
2021/07/13 07:10:20;;;;;;;11.70;5.20;;;27.80;99.90;;;;;;5025082;28;20578;-76
2021/07/13 07:12:49;;;;;;;9.93;5.03;;;27.80;99.90;;;;;;5025586;28;20211;-76
2021/07/13 07:15:17;;;;;;;16.45;5.47;;;27.80;99.90;;;;;;5027711;28;20194;-73
2021/07/13 07:17:52;;;;;;;17.20;6.10;;;28.00;99.90;;;;;;5042655;28;20187;-73
2021/07/13 07:20:26;;;;;;;14.73;6.10;;;28.00;99.90;;;;;;5039038;28;20277;-73
2021/07/13 07:22:57;;;;;;;17.33;5.78;;;28.20;99.90;;;;;;5055618;28;20210;-74
2021/07/13 07:25:24;;;;;;;17.05;5.30;;;28.20;99.90;;;;;;5059178;28;20200;-73
2021/07/13 07:27:55;;;;;;;17.38;5.70;;;28.10;99.90;;;;;;5044542;28;20233;-75
2021/07/13 07:30:23;;;;;;;17.65;6.70;;;28.20;99.90;;;;;;5038091;28;20182;-76
2021/07/13 07:32:50;;;;;;;13.73;5.88;;;28.30;99.90;;;;;;5036965;28;20222;-75
2021/07/13 07:35:17;;;;;;;12.60;5.63;;;28.40;99.90;;;;;;5055778;28;20233;-78
2021/07/13 07:37:44;;;;;;;14.05;6.20;;;28.40;99.90;;;;;;5040047;28;20187;-75
2021/07/13 07:40:20;;;;;;;14.27;6.13;;;28.50;99.90;;;;;;5012929;28;20192;-75
2021/07/13 07:42:58;;;;;;;21.05;5.97;;;28.50;99.90;;;;;;5040165;28;20274;-73
2021/07/13 07:45:26;;;;;;;16.45;5.30;;;28.50;99.90;;;;;;5057209;28;20211;-73
2021/07/13 07:47:53;;;;;;;15.02;5.30;;;28.60;99.90;;;;;;5040570;28;20198;-73
2021/07/13 07:50:21;;;;;;;7.90;5.10;;;28.50;99.90;;;;;;5022036;28;20179;-73
2021/07/13 07:52:48;;;;;;;11.40;5.45;;;28.50;99.90;;;;;;5027185;28;20639;-73
2021/07/13 07:55:15;;;;;;;15.77;5.72;;;28.60;99.90;;;;;;5025479;28;20196;-75
2021/07/13 07:57:42;;;;;;;16.80;5.95;;;28.60;99.90;;;;;;5040386;28;20251;-74
2021/07/13 08:00:12;;;;;;;15.63;6.18;;;28.50;99.90;;;;;;5055424;28;20195;-75
2021/07/13 08:02:39;;;;;;;15.93;5.95;;;28.90;99.90;;;;;;5023315;28;20196;-75
2021/07/13 08:05:07;;;;;;;17.23;5.35;;;29.00;99.90;;;;;;5043794;28;20215;-72
2021/07/13 08:07:34;;;;;;;13.35;5.22;;;29.20;99.90;;;;;;5044410;28;20203;-75
2021/07/13 08:10:01;;;;;;;14.98;5.55;;;29.10;99.90;;;;;;5017261;28;20191;-74
2021/07/13 08:12:28;;;;;;;13.15;5.82;;;29.20;99.90;;;;;;5020931;28;20187;-74
2021/07/13 08:14:54;;;;;;;16.75;5.72;;;29.30;99.90;;;;;;5029612;28;20195;-76
2021/07/13 08:17:21;;;;;;;11.98;5.43;;;29.30;99.90;;;;;;5042695;28;20266;-72
2021/07/13 08:19:47;;;;;;;12.75;6.00;;;29.20;99.90;;;;;;5043811;28;20199;-74
2021/07/13 08:22:14;;;;;;;18.90;5.85;;;29.40;99.90;;;;;;5024462;28;20191;-75
2021/07/13 08:24:41;;;;;;;10.73;5.72;;;29.40;99.90;;;;;;5043327;28;20667;-77
2021/07/13 08:27:09;;;;;;;13.02;5.88;;;29.40;99.90;;;;;;5022521;28;20180;-76
2021/07/13 08:29:36;;;;;;;16.48;5.97;;;29.50;99.90;;;;;;5021574;28;20223;-77
2021/07/13 08:32:04;;;;;;;14.13;5.25;;;29.60;99.90;;;;;;5037823;28;20311;-75
2021/07/13 08:34:34;;;;;;;18.00;5.63;;;29.70;99.90;;;;;;5052676;28;20187;-75
2021/07/13 08:37:05;;;;;;;17.85;6.15;;;29.90;99.90;;;;;;5023873;28;20201;-75
2021/07/13 08:39:33;;;;;;;13.68;5.13;;;29.90;99.90;;;;;;5055994;28;20195;-77
2021/07/13 08:42:02;;;;;;;15.13;4.68;;;29.80;99.90;;;;;;5009204;28;21492;-75
2021/07/13 08:44:30;;;;;;;12.38;5.10;;;29.90;99.90;;;;;;5037056;28;20207;-74
2021/07/13 08:46:57;;;;;;;13.73;5.50;;;30.00;99.90;;;;;;5037545;28;20487;-74
2021/07/13 08:49:25;;;;;;;13.68;4.93;;;30.00;99.90;;;;;;5036907;28;20191;-74
2021/07/13 08:51:51;;;;;;;15.13;5.10;;;30.00;99.90;;;;;;5040641;28;20184;-76
2021/07/13 08:54:19;;;;;;;9.57;4.95;;;30.00;99.90;;;;;;5045524;28;20183;-76
2021/07/13 08:56:46;;;;;;;12.77;5.00;;;30.10;99.90;;;;;;5038862;28;20188;-74
2021/07/13 08:59:12;;;;;;;15.10;4.88;;;30.30;99.90;;;;;;5043014;28;20191;-75
2021/07/13 09:01:39;;;;;;;12.88;5.10;;;30.10;99.90;;;;;;5036757;28;20742;-75
2021/07/13 09:04:08;;;;;;;13.18;5.13;;;30.30;99.90;;;;;;5020710;28;20686;-74
2021/07/13 09:06:57;;;;;;;12.57;5.07;;;30.30;99.90;;;;;;5038552;28;20963;-75
2021/07/13 09:09:29;;;;;;;10.43;5.03;;;30.40;99.90;;;;;;5023949;28;20803;-74
2021/07/13 09:12:22;;;;;;;13.15;5.03;;;30.50;99.90;;;;;;5033702;28;20203;-75
2021/07/13 09:14:57;;;;;;;14.32;4.82;;;30.60;99.90;;;;;;5040346;28;20236;-75
2021/07/13 09:17:44;;;;;;;10.35;4.53;;;30.60;99.90;;;;;;5037182;28;20218;-75
2021/07/13 09:20:27;;;;;;;10.90;4.65;;;30.60;99.90;;;;;;5023956;28;20248;-74
2021/07/13 09:23:04;;;;;;;16.20;4.90;;;30.80;99.90;;;;;;5040763;28;20207;-74
2021/07/13 09:25:44;;;;;;;10.25;4.95;;;30.80;99.90;;;;;;5043497;28;20207;-74
2021/07/13 09:28:21;;;;;;;13.55;5.20;;;30.70;99.90;;;;;;5044081;28;20188;-74
2021/07/13 09:30:52;;;;;;;9.93;4.55;;;30.70;99.90;;;;;;5037801;28;20187;-74
2021/07/13 09:33:32;;;;;;;8.98;5.03;;;30.60;99.90;;;;;;5040142;28;20187;-75
2021/07/13 09:36:15;;;;;;;13.48;5.03;;;30.50;99.90;;;;;;5039838;28;20191;-75
2021/07/13 09:38:48;;;;;;;12.65;5.28;;;30.60;99.90;;;;;;5040825;28;20617;-75
2021/07/13 09:41:21;;;;;;;10.27;5.07;;;30.90;99.90;;;;;;5038382;28;20203;-74
2021/07/13 09:43:59;;;;;;;14.20;5.35;;;30.90;99.90;;;;;;5029163;28;20863;-74
2021/07/13 09:46:25;;;;;;;15.90;4.88;;;31.00;99.90;;;;;;5035292;28;20680;-74
2021/07/13 09:49:14;;;;;;;11.90;4.97;;;31.10;99.90;;;;;;5041855;28;20183;-75
2021/07/13 09:51:56;;;;;;;10.32;4.93;;;31.10;99.90;;;;;;5038069;28;20212;-72
2021/07/13 09:54:38;;;;;;;11.55;4.82;;;31.10;99.90;;;;;;5035808;28;20191;-75
2021/07/13 09:57:16;;;;;;;16.17;4.80;;;31.30;99.90;;;;;;5039045;28;20188;-75
2021/07/13 09:59:47;;;;;;;11.98;4.85;;;31.30;99.90;;;;;;5039944;28;20714;-76
2021/07/13 10:02:18;;;;;;;16.42;5.10;;;31.30;99.90;;;;;;5047203;28;20203;-72
2021/07/13 10:04:47;;;;;;;12.00;4.88;;;31.40;99.90;;;;;;5045014;28;20212;-74
2021/07/13 10:07:20;;;;;;;13.48;5.47;;;31.50;99.90;;;;;;5044201;28;20191;-77
2021/07/13 10:09:55;;;;;;;17.58;5.32;;;31.60;99.90;;;;;;5044056;28;20687;-75
2021/07/13 10:12:28;;;;;;;14.00;5.68;;;31.70;99.90;;;;;;5024076;28;20183;-74
2021/07/13 10:14:57;;;;;;;10.25;4.78;;;31.60;99.90;;;;;;5030574;28;20708;-74
2021/07/13 10:17:28;;;;;;;13.15;5.18;;;31.50;99.90;;;;;;5041499;28;20196;-72
2021/07/13 10:20:08;;;;;;;14.05;5.40;;;31.70;99.90;;;;;;5024870;28;20203;-75
2021/07/13 10:22:42;;;;;;;9.63;4.85;;;31.70;99.90;;;;;;5043765;28;20211;-75
2021/07/13 10:25:11;;;;;;;14.13;5.15;;;31.80;99.90;;;;;;5040806;28;20225;-73
2021/07/13 10:27:41;;;;;;;15.75;5.40;;;31.80;99.90;;;;;;5026800;28;20947;-75
2021/07/13 10:30:29;;;;;;;13.52;5.18;;;31.50;99.90;;;;;;5041754;28;20683;-76
2021/07/13 10:32:56;;;;;;;9.82;5.20;;;31.70;99.90;;;;;;5041050;28;20221;-74
2021/07/13 10:35:27;;;;;;;17.17;5.70;;;31.70;99.90;;;;;;5040589;28;20199;-74
2021/07/13 10:37:58;;;;;;;15.05;6.03;;;31.80;99.90;;;;;;5025354;28;20655;-73
2021/07/13 10:40:27;;;;;;;9.32;4.70;;;31.60;99.90;;;;;;5043410;28;20198;-76
2021/07/13 10:43:22;;;;;;;17.40;5.00;;;31.60;99.90;;;;;;5057060;28;20325;-73
2021/07/13 10:46:09;;;;;;;15.75;5.22;;;32.10;99.90;;;;;;5031409;28;20227;-73
2021/07/13 10:48:38;;;;;;;12.30;5.82;;;31.80;99.90;;;;;;5041821;28;20269;-72
2021/07/13 10:51:07;;;;;;;12.13;5.25;;;31.60;99.90;;;;;;5041796;28;20564;-74
2021/07/13 10:53:45;;;;;;;8.20;5.10;;;31.60;99.90;;;;;;5043707;28;20253;-73
2021/07/13 10:56:17;;;;;;;10.93;4.57;;;31.70;99.90;;;;;;5043565;28;20195;-74
2021/07/13 10:58:52;;;;;;;11.32;5.47;;;31.70;99.90;;;;;;5043579;28;20191;-72
2021/07/13 11:01:30;;;;;;;13.52;5.00;;;31.60;99.90;;;;;;5055350;28;20191;-73
2021/07/13 11:04:06;;;;;;;12.85;5.20;;;31.70;99.90;;;;;;5026647;28;20265;-74
2021/07/13 11:06:41;;;;;;;12.98;5.18;;;31.40;99.90;;;;;;5039113;28;20195;-74
2021/07/13 11:09:25;;;;;;;14.85;5.93;;;31.30;99.90;;;;;;5060573;28;21172;-73
2021/07/13 11:12:04;;;;;;;13.32;5.10;;;31.10;99.90;;;;;;5040980;28;20211;-73
2021/07/13 11:14:31;;;;;;;14.68;5.30;;;31.40;99.90;;;;;;5057109;28;20195;-73
2021/07/13 11:16:57;;;;;;;9.98;4.57;;;31.10;99.90;;;;;;5035586;28;20302;-75
2021/07/13 11:19:24;;;;;;;7.43;4.72;;;31.00;99.90;;;;;;5059825;28;20222;-74
2021/07/13 11:21:55;;;;;;;11.90;5.20;;;31.10;99.90;;;;;;5025071;28;20196;-75
2021/07/13 11:24:24;;;;;;;8.98;5.10;;;31.00;99.90;;;;;;5042648;28;20219;-76
2021/07/13 11:26:55;;;;;;;11.25;4.40;;;30.90;99.90;;;;;;5040020;28;20780;-76
2021/07/13 11:29:27;;;;;;;12.30;4.88;;;30.90;99.90;;;;;;5044131;28;20179;-74
2021/07/13 11:32:01;;;;;;;13.02;4.70;;;30.80;99.90;;;;;;5040907;28;20211;-72
2021/07/13 11:34:37;;;;;;;9.63;4.72;;;31.00;99.90;;;;;;5039030;28;20893;-75
2021/07/13 11:37:06;;;;;;;6.95;4.45;;;31.40;99.90;;;;;;5037751;28;20233;-75
2021/07/13 11:39:35;;;;;;;12.63;4.95;;;31.40;99.90;;;;;;5059518;28;20655;-73
2021/07/13 11:42:09;;;;;;;14.63;4.90;;;31.10;99.90;;;;;;5018708;28;20195;-74
2021/07/13 11:44:43;;;;;;;19.50;5.30;;;30.80;99.90;;;;;;5040670;28;20664;-75
2021/07/13 11:47:13;;;;;;;13.52;5.25;;;31.10;99.90;;;;;;5031877;28;20215;-75
2021/07/13 11:49:40;;;;;;;18.00;5.43;;;31.20;99.90;;;;;;5039077;28;20299;-73
2021/07/13 11:52:16;;;;;;;9.18;5.28;;;31.10;99.90;;;;;;5040142;28;20183;-74
2021/07/13 11:54:48;;;;;;;14.40;5.38;;;31.10;99.90;;;;;;5041609;28;20639;-73
2021/07/13 11:57:21;;;;;;;12.63;5.20;;;30.90;99.90;;;;;;5039476;28;20175;-73
2021/07/13 11:59:48;;;;;;;12.85;5.22;;;30.90;99.90;;;;;;5040203;28;20281;-74
2021/07/13 12:02:16;;;;;;;12.48;5.10;;;31.30;99.90;;;;;;5024614;28;20684;-76
2021/07/13 12:04:46;;;;;;;9.40;5.00;;;31.10;99.90;;;;;;5023636;28;20212;-73
2021/07/13 12:07:14;;;;;;;10.98;4.95;;;31.10;99.90;;;;;;5024719;28;20256;-76
2021/07/13 12:09:42;;;;;;;15.20;5.63;;;30.90;99.90;;;;;;5040928;28;20192;-76
2021/07/13 12:12:13;;;;;;;12.80;5.30;;;30.80;99.90;;;;;;5040215;28;20190;-75
2021/07/13 12:14:46;;;;;;;19.52;5.80;;;31.40;99.90;;;;;;5043040;28;20180;-74
2021/07/13 12:17:14;;;;;;;9.80;5.28;;;31.10;99.90;;;;;;5035351;28;20205;-74
2021/07/13 12:19:42;;;;;;;8.52;5.03;;;30.80;99.90;;;;;;5038036;28;20187;-75
2021/07/13 12:22:13;;;;;;;10.40;5.30;;;31.10;99.90;;;;;;5041510;28;20714;-75
2021/07/13 12:24:46;;;;;;;11.73;5.30;;;31.30;99.90;;;;;;5021651;28;20230;-75
2021/07/13 12:27:18;;;;;;;15.07;5.47;;;31.00;99.90;;;;;;5038207;28;20655;-73
2021/07/13 12:29:51;;;;;;;13.55;5.70;;;31.10;99.90;;;;;;5038827;28;20658;-75
2021/07/13 12:32:26;;;;;;;10.00;5.20;;;31.10;99.90;;;;;;5041334;28;20194;-73
2021/07/13 12:34:55;;;;;;;14.27;5.13;;;30.90;99.90;;;;;;5041613;28;20769;-74
2021/07/13 12:37:27;;;;;;;11.60;5.47;;;31.10;99.90;;;;;;5042372;28;20195;-74
2021/07/13 12:40:10;;;;;;;11.45;5.25;;;31.40;99.90;;;;;;5020345;28;20192;-74
2021/07/13 12:42:49;;;;;;;11.77;5.32;;;31.00;99.90;;;;;;5039318;28;20203;-73
2021/07/13 12:45:24;;;;;;;13.43;5.90;;;31.10;99.90;;;;;;5038809;28;20648;-75
2021/07/13 12:47:54;;;;;;;14.68;5.80;;;30.70;99.90;;;;;;5022428;28;20699;-74
2021/07/13 12:50:22;;;;;;;9.55;5.13;;;30.80;99.90;;;;;;5017399;28;20672;-78
2021/07/13 12:52:55;;;;;;;11.63;5.93;;;30.70;99.90;;;;;;5024827;28;20280;-75
2021/07/13 12:55:38;;;;;;;9.25;5.93;;;31.00;99.90;;;;;;5035052;28;20848;-75
2021/07/13 12:58:20;;;;;;;9.68;5.28;;;31.00;99.90;;;;;;5033637;28;20191;-74
2021/07/13 13:00:51;;;;;;;10.73;5.65;;;31.20;99.90;;;;;;5042156;28;20194;-74